createdAt,value
2023-05-19T00:00:25.808Z,10.09
2023-05-19T00:01:25.765Z,10.08
2023-05-19T00:02:25.919Z,10.08
2023-05-19T00:03:25.747Z,10.06
2023-05-19T00:04:25.772Z,10.05
2023-05-19T00:05:25.724Z,10.03
2023-05-19T00:06:25.749Z,10.02
2023-05-19T00:07:25.689Z,10.01
2023-05-19T00:08:25.705Z,10.00
2023-05-19T00:09:25.627Z,10.00
2023-05-19T00:10:25.731Z,10.00
2023-05-19T00:11:25.641Z,10.01
2023-05-19T00:12:25.691Z,10.03
2023-05-19T00:13:25.612Z,10.04
2023-05-19T00:14:25.650Z,10.04
2023-05-19T00:15:25.563Z,10.04
2023-05-19T00:16:25.694Z,10.03
2023-05-19T00:17:25.538Z,10.02
2023-05-19T00:18:25.630Z,10.03
2023-05-19T00:19:25.598Z,10.02
2023-05-19T00:20:25.493Z,10.02
2023-05-19T00:21:25.474Z,10.01
2023-05-19T00:22:25.505Z,10.01
2023-05-19T00:23:25.460Z,10.02
2023-05-19T00:24:25.585Z,10.03
2023-05-19T00:25:25.424Z,10.02
2023-05-19T00:26:25.436Z,10.01
2023-05-19T00:27:25.406Z,10.01
2023-05-19T00:28:25.445Z,10.01
2023-05-19T00:29:25.377Z,10.01
2023-05-19T00:30:25.417Z,10.02
2023-05-19T00:31:25.396Z,10.03
2023-05-19T00:32:25.431Z,10.04
2023-05-19T00:33:25.309Z,10.05
2023-05-19T00:34:25.315Z,10.05
2023-05-19T00:35:25.277Z,10.05
2023-05-19T00:36:25.353Z,10.06
2023-05-19T00:37:25.269Z,10.08
2023-05-19T00:38:25.322Z,10.07
2023-05-19T00:39:25.238Z,10.06
2023-05-19T00:40:25.336Z,10.06
2023-05-19T00:41:25.255Z,10.05
2023-05-19T00:42:25.241Z,10.04
2023-05-19T00:43:25.208Z,10.03
2023-05-19T00:44:27.248Z,10.02
2023-05-19T00:45:25.170Z,10.03
2023-05-19T00:46:25.176Z,10.02
2023-05-19T00:47:25.182Z,10.03
2023-05-19T00:48:25.234Z,10.04
2023-05-19T00:49:25.107Z,10.03
2023-05-19T00:50:25.248Z,10.04
2023-05-19T00:51:25.080Z,10.02
2023-05-19T00:52:25.194Z,10.01
2023-05-19T00:53:25.065Z,10.01
2023-05-19T00:54:25.069Z,10.01
2023-05-19T00:55:25.010Z,10.01
2023-05-19T00:56:25.053Z,9.99
2023-05-19T00:57:25.022Z,9.95
2023-05-19T00:58:25.056Z,9.92
2023-05-19T00:59:24.979Z,9.90
2023-05-19T01:00:24.981Z,9.90
2023-05-19T01:01:24.983Z,9.90
2023-05-19T01:02:25.020Z,9.92
2023-05-19T01:03:25.046Z,9.94
2023-05-19T01:04:24.933Z,9.93
2023-05-19T01:05:24.900Z,9.94
2023-05-19T01:06:24.952Z,9.93
2023-05-19T01:07:24.868Z,9.94
2023-05-19T01:08:24.924Z,9.94
2023-05-19T01:09:24.848Z,9.95
2023-05-19T01:10:24.942Z,9.96
2023-05-19T01:11:24.824Z,9.99
2023-05-19T01:12:24.900Z,10.00
2023-05-19T01:13:24.795Z,10.00
2023-05-19T01:14:24.858Z,9.98
2023-05-19T01:15:24.760Z,9.98
2023-05-19T01:16:24.848Z,9.98
2023-05-19T01:17:24.786Z,9.97
2023-05-19T01:18:24.856Z,9.96
2023-05-19T01:19:24.794Z,9.96
2023-05-19T01:20:24.717Z,9.95
2023-05-19T01:21:24.692Z,9.93
2023-05-19T01:22:24.722Z,9.94
2023-05-19T01:23:24.665Z,9.95
2023-05-19T01:24:24.692Z,9.96
2023-05-19T01:25:24.624Z,9.96
2023-05-19T01:26:24.645Z,9.96
2023-05-19T01:27:24.612Z,9.96
2023-05-19T01:28:24.670Z,9.96
2023-05-19T01:29:24.582Z,9.95
2023-05-19T01:30:24.609Z,9.94
2023-05-19T01:31:24.582Z,9.93
2023-05-19T01:32:24.586Z,9.92
2023-05-19T01:33:24.511Z,9.91
2023-05-19T01:34:24.590Z,9.90
2023-05-19T01:35:24.484Z,9.91
2023-05-19T01:36:24.575Z,9.91
2023-05-19T01:37:24.476Z,9.93
2023-05-19T01:38:24.540Z,9.94
2023-05-19T01:39:24.441Z,9.95
2023-05-19T01:40:24.431Z,9.96
2023-05-19T01:41:24.400Z,9.96
2023-05-19T01:42:25.538Z,9.96
2023-05-19T01:43:24.375Z,9.96
2023-05-19T01:44:25.406Z,9.95
2023-05-19T01:45:24.363Z,9.96
2023-05-19T01:46:24.484Z,9.98
2023-05-19T01:47:24.339Z,10.00
2023-05-19T01:48:24.473Z,10.00
2023-05-19T01:49:24.308Z,10.01
2023-05-19T01:50:24.296Z,10.01
2023-05-19T01:51:24.272Z,10.00
2023-05-19T01:52:24.325Z,9.98
2023-05-19T01:53:24.248Z,9.97
2023-05-19T01:54:24.320Z,9.95
2023-05-19T01:55:24.232Z,9.94
2023-05-19T01:56:24.248Z,9.93
2023-05-19T01:57:24.203Z,9.91
2023-05-19T01:58:25.177Z,9.90
2023-05-19T01:59:24.181Z,9.90
2023-05-19T02:00:24.246Z,9.90
2023-05-19T02:01:24.177Z,9.90
2023-05-19T02:02:24.168Z,9.90
2023-05-19T02:03:24.112Z,9.88
2023-05-19T02:04:24.262Z,9.86
2023-05-19T02:05:24.086Z,9.85
2023-05-19T02:06:24.158Z,9.84
2023-05-19T02:07:24.060Z,9.82
2023-05-19T02:08:24.084Z,9.82
2023-05-19T02:09:24.048Z,9.84
2023-05-19T02:10:24.035Z,9.86
2023-05-19T02:11:24.024Z,9.88
2023-05-19T02:12:24.128Z,9.90
2023-05-19T02:13:24.018Z,9.91
2023-05-19T02:14:24.068Z,9.91
2023-05-19T02:15:23.958Z,9.93
2023-05-19T02:16:23.989Z,9.94
2023-05-19T02:17:23.932Z,9.94
2023-05-19T02:18:23.946Z,9.94
2023-05-19T02:19:24.132Z,9.92
2023-05-19T02:20:23.921Z,9.91
2023-05-19T02:21:23.855Z,9.91
2023-05-19T02:22:23.930Z,9.91
2023-05-19T02:23:23.860Z,9.93
2023-05-19T02:24:24.087Z,9.94
2023-05-19T02:25:23.826Z,9.95
2023-05-19T02:26:23.843Z,9.94
2023-05-19T02:27:23.782Z,9.92
2023-05-19T02:28:23.864Z,9.91
2023-05-19T02:29:23.768Z,9.88
2023-05-19T02:30:24.867Z,9.86
2023-05-19T02:31:23.789Z,9.85
2023-05-19T02:32:23.794Z,9.84
2023-05-19T02:33:23.727Z,9.83
2023-05-19T02:34:23.710Z,9.83
2023-05-19T02:35:23.666Z,9.83
2023-05-19T02:36:23.791Z,9.83
2023-05-19T02:37:23.687Z,9.83
2023-05-19T02:38:23.736Z,9.82
2023-05-19T02:39:23.630Z,9.84
2023-05-19T02:40:23.643Z,9.86
2023-05-19T02:41:23.600Z,9.88
2023-05-19T02:42:23.722Z,9.88
2023-05-19T02:43:23.572Z,9.87
2023-05-19T02:44:23.712Z,9.87
2023-05-19T02:45:23.571Z,9.86
2023-05-19T02:46:23.627Z,9.85
2023-05-19T02:47:23.537Z,9.83
2023-05-19T02:48:23.543Z,9.82
2023-05-19T02:49:23.497Z,9.81
2023-05-19T02:50:23.519Z,9.79
2023-05-19T02:51:23.477Z,9.80
2023-05-19T02:52:23.524Z,9.78
2023-05-19T02:53:23.445Z,9.76
2023-05-19T02:54:23.443Z,9.75
2023-05-19T02:55:23.433Z,9.74
2023-05-19T02:56:23.446Z,9.73
2023-05-19T02:57:23.386Z,9.72
2023-05-19T02:58:23.464Z,9.68
2023-05-19T02:59:25.495Z,9.65
2023-05-19T03:00:23.446Z,9.62
2023-05-19T03:01:23.383Z,9.59
2023-05-19T03:02:23.400Z,9.57
2023-05-19T03:03:23.437Z,9.57
2023-05-19T03:04:23.310Z,9.55
2023-05-19T03:05:23.322Z,9.54
2023-05-19T03:06:23.405Z,9.51
2023-05-19T03:07:23.242Z,9.50
2023-05-19T03:08:23.344Z,9.48
2023-05-19T03:09:23.225Z,9.45
2023-05-19T03:10:23.251Z,9.44
2023-05-19T03:11:23.290Z,9.42
2023-05-19T03:12:23.230Z,9.42
2023-05-19T03:13:23.153Z,9.42
2023-05-19T03:14:25.271Z,9.40
2023-05-19T03:15:23.144Z,9.39
2023-05-19T03:16:23.218Z,9.38
2023-05-19T03:17:23.176Z,9.36
2023-05-19T03:18:23.216Z,9.34
2023-05-19T03:19:23.140Z,9.33
2023-05-19T03:20:23.134Z,9.33
2023-05-19T03:21:23.071Z,9.34
2023-05-19T03:22:23.133Z,9.34
2023-05-19T03:23:23.053Z,9.33
2023-05-19T03:24:23.118Z,9.32
2023-05-19T03:25:23.007Z,9.31
2023-05-19T03:26:23.067Z,9.32
2023-05-19T03:27:22.995Z,9.34
2023-05-19T03:28:22.988Z,9.37
2023-05-19T03:29:22.986Z,9.39
2023-05-19T03:30:23.032Z,9.40
2023-05-19T03:31:22.945Z,9.43
2023-05-19T03:32:23.068Z,9.46
2023-05-19T03:33:23.195Z,9.49
2023-05-19T03:34:22.934Z,9.51
2023-05-19T03:35:22.857Z,9.54
2023-05-19T03:36:22.887Z,9.56
2023-05-19T03:37:22.835Z,9.59
2023-05-19T03:38:22.851Z,9.61
2023-05-19T03:39:22.854Z,9.61
2023-05-19T03:40:22.787Z,9.59
2023-05-19T03:41:22.789Z,9.56
2023-05-19T03:42:22.841Z,9.53
2023-05-19T03:43:22.755Z,9.52
2023-05-19T03:44:22.789Z,9.51
2023-05-19T03:45:22.745Z,9.50
2023-05-19T03:46:22.838Z,9.50
2023-05-19T03:47:22.708Z,9.52
2023-05-19T03:48:22.788Z,9.55
2023-05-19T03:49:22.679Z,9.58
2023-05-19T03:50:22.737Z,9.61
2023-05-19T03:51:22.641Z,9.64
2023-05-19T03:52:22.736Z,9.66
2023-05-19T03:53:22.629Z,9.67
2023-05-19T03:54:22.781Z,9.65
2023-05-19T03:55:22.578Z,9.62
2023-05-19T03:56:22.582Z,9.60
2023-05-19T03:57:22.562Z,9.58
2023-05-19T03:58:22.584Z,9.56
2023-05-19T03:59:22.530Z,9.53
2023-05-19T04:00:22.698Z,9.53
2023-05-19T04:01:22.516Z,9.53
2023-05-19T04:02:22.577Z,9.55
2023-05-19T04:03:22.688Z,9.56
2023-05-19T04:04:22.553Z,9.57
2023-05-19T04:05:22.459Z,9.58
2023-05-19T04:06:22.498Z,9.59
2023-05-19T04:07:22.446Z,9.60
2023-05-19T04:08:22.470Z,9.60
2023-05-19T04:09:22.392Z,9.60
2023-05-19T04:10:22.483Z,9.62
2023-05-19T04:11:22.370Z,9.65
2023-05-19T04:12:22.431Z,9.67
2023-05-19T04:13:22.352Z,9.68
2023-05-19T04:14:22.381Z,9.70
2023-05-19T04:15:22.296Z,9.71
2023-05-19T04:16:22.659Z,9.73
2023-05-19T04:17:22.452Z,9.75
2023-05-19T04:18:22.386Z,9.75
2023-05-19T04:19:22.431Z,9.77
2023-05-19T04:20:23.373Z,9.78
2023-05-19T04:21:22.247Z,9.79
2023-05-19T04:22:22.230Z,9.79
2023-05-19T04:23:22.205Z,9.79
2023-05-19T04:24:22.321Z,9.77
2023-05-19T04:25:22.164Z,9.76
2023-05-19T04:26:22.255Z,9.76
2023-05-19T04:27:22.138Z,9.76
2023-05-19T04:28:23.207Z,9.77
2023-05-19T04:29:22.126Z,9.77
2023-05-19T04:30:22.500Z,9.77
2023-05-19T04:31:22.179Z,9.77
2023-05-19T04:32:22.087Z,9.76
2023-05-19T04:33:22.073Z,9.75
2023-05-19T04:34:22.117Z,9.75
2023-05-19T04:35:22.015Z,9.76
2023-05-19T04:36:22.085Z,9.76
2023-05-19T04:37:22.078Z,9.75
2023-05-19T04:38:22.064Z,9.74
2023-05-19T04:39:21.991Z,9.74
2023-05-19T04:40:22.057Z,9.76
2023-05-19T04:41:22.000Z,9.76
2023-05-19T04:42:22.023Z,9.77
2023-05-19T04:43:21.958Z,9.78
2023-05-19T04:44:21.995Z,9.79
2023-05-19T04:45:21.929Z,9.82
2023-05-19T04:46:22.057Z,9.85
2023-05-19T04:47:21.898Z,9.86
2023-05-19T04:48:22.015Z,9.87
2023-05-19T04:49:21.823Z,9.88
2023-05-19T04:50:21.944Z,9.90
2023-05-19T04:51:21.819Z,9.91
2023-05-19T04:52:21.911Z,9.90
2023-05-19T04:53:21.803Z,9.89
2023-05-19T04:54:21.932Z,9.89
2023-05-19T04:55:21.952Z,9.90
2023-05-19T04:56:21.791Z,9.91
2023-05-19T04:57:21.738Z,9.89
2023-05-19T04:58:21.757Z,9.89
2023-05-19T04:59:21.721Z,9.87
2023-05-19T05:00:21.775Z,9.85
2023-05-19T05:01:21.704Z,9.84
2023-05-19T05:02:21.908Z,9.82
2023-05-19T05:03:21.806Z,9.80
2023-05-19T05:04:21.656Z,9.79
2023-05-19T05:05:21.635Z,9.79
2023-05-19T05:06:22.663Z,9.81
2023-05-19T05:07:21.602Z,9.84
2023-05-19T05:08:21.587Z,9.86
2023-05-19T05:09:21.558Z,9.88
2023-05-19T05:10:21.567Z,9.90
2023-05-19T05:11:21.543Z,9.90
2023-05-19T05:12:21.632Z,9.90
2023-05-19T05:13:21.509Z,9.90
2023-05-19T05:14:21.490Z,9.91
2023-05-19T05:15:21.479Z,9.92
2023-05-19T05:16:21.500Z,9.93
2023-05-19T05:17:21.471Z,9.95
2023-05-19T05:18:21.488Z,9.98
2023-05-19T05:19:21.462Z,10.00
2023-05-19T05:20:21.430Z,10.00
2023-05-19T05:21:21.387Z,9.98
2023-05-19T05:22:22.390Z,9.98
2023-05-19T05:23:21.485Z,9.99
2023-05-19T05:24:21.625Z,10.01
2023-05-19T05:25:21.328Z,10.04
2023-05-19T05:26:21.416Z,10.07
2023-05-19T05:27:21.381Z,10.12
2023-05-19T05:28:21.450Z,10.15
2023-05-19T05:29:21.347Z,10.17
2023-05-19T05:30:21.417Z,10.20
2023-05-19T05:31:21.426Z,10.21
2023-05-19T05:32:21.588Z,10.20
2023-05-19T05:33:21.471Z,10.21
2023-05-19T05:34:21.467Z,10.21
2023-05-19T05:35:21.311Z,10.20
2023-05-19T05:36:21.407Z,10.18
2023-05-19T05:37:21.303Z,10.18
2023-05-19T05:38:21.367Z,10.19
2023-05-19T05:39:21.281Z,10.19
2023-05-19T05:40:21.256Z,10.21
2023-05-19T05:41:21.252Z,10.21
2023-05-19T05:42:22.311Z,10.21
2023-05-19T05:43:21.227Z,10.22
2023-05-19T05:44:21.192Z,10.24
2023-05-19T05:45:21.064Z,10.26
2023-05-19T05:46:21.253Z,10.28
2023-05-19T05:47:21.053Z,10.31
2023-05-19T05:48:21.246Z,10.33
2023-05-19T05:49:21.021Z,10.34
2023-05-19T05:50:21.044Z,10.37
2023-05-19T05:51:21.005Z,10.41
2023-05-19T05:52:21.173Z,10.44
2023-05-19T05:53:20.979Z,10.48
2023-05-19T05:54:21.236Z,10.52
2023-05-19T05:55:21.180Z,10.57
2023-05-19T05:56:20.978Z,10.63
2023-05-19T05:57:20.905Z,10.66
2023-05-19T05:58:20.987Z,10.69
2023-05-19T05:59:20.903Z,10.68
2023-05-19T06:00:20.955Z,10.66
2023-05-19T06:01:21.055Z,10.63
2023-05-19T06:02:21.056Z,10.63
2023-05-19T06:03:20.944Z,10.66
2023-05-19T06:04:20.931Z,10.69
2023-05-19T06:05:20.861Z,10.71
2023-05-19T06:06:20.910Z,10.75
2023-05-19T06:07:20.808Z,10.79
2023-05-19T06:08:20.884Z,10.84
2023-05-19T06:09:20.762Z,10.85
2023-05-19T06:10:21.816Z,10.85
2023-05-19T06:11:20.733Z,10.81
2023-05-19T06:12:21.767Z,10.79
2023-05-19T06:13:20.701Z,10.77
2023-05-19T06:14:20.806Z,10.73
2023-05-19T06:15:20.672Z,10.73
2023-05-19T06:16:20.852Z,10.73
2023-05-19T06:17:20.655Z,10.72
2023-05-19T06:18:20.699Z,10.72
2023-05-19T06:19:20.650Z,10.73
2023-05-19T06:20:20.654Z,10.74
2023-05-19T06:21:20.626Z,10.77
2023-05-19T06:22:20.666Z,10.80
2023-05-19T06:23:20.599Z,10.82
2023-05-19T06:24:20.636Z,10.83
2023-05-19T06:25:20.571Z,10.86
2023-05-19T06:26:20.599Z,10.88
2023-05-19T06:27:20.529Z,10.89
2023-05-19T06:28:20.726Z,10.91
2023-05-19T06:29:20.503Z,10.93
2023-05-19T06:30:20.588Z,10.96
2023-05-19T06:31:20.491Z,10.98
2023-05-19T06:32:20.532Z,11.00
2023-05-19T06:33:20.420Z,11.00
2023-05-19T06:34:20.448Z,11.02
2023-05-19T06:35:20.498Z,11.04
2023-05-19T06:36:21.530Z,11.06
2023-05-19T06:37:20.368Z,11.09
2023-05-19T06:38:20.465Z,11.12
2023-05-19T06:39:20.343Z,11.14
2023-05-19T06:40:20.385Z,11.17
2023-05-19T06:41:20.328Z,11.16
2023-05-19T06:42:20.449Z,11.15
2023-05-19T06:43:20.283Z,11.18
2023-05-19T06:44:21.296Z,11.21
2023-05-19T06:45:20.282Z,11.24
2023-05-19T06:46:20.351Z,11.26
2023-05-19T06:47:20.263Z,11.25
2023-05-19T06:48:20.291Z,11.25
2023-05-19T06:49:20.208Z,11.26
2023-05-19T06:50:20.235Z,11.24
2023-05-19T06:51:20.168Z,11.22
2023-05-19T06:52:20.236Z,11.19
2023-05-19T06:53:20.156Z,11.17
2023-05-19T06:54:20.208Z,11.15
2023-05-19T06:55:20.145Z,11.12
2023-05-19T06:56:21.209Z,11.11
2023-05-19T06:57:20.085Z,11.12
2023-05-19T06:58:20.219Z,11.14
2023-05-19T06:59:20.065Z,11.19
2023-05-19T07:00:22.124Z,11.25
2023-05-19T07:01:20.085Z,11.32
2023-05-19T07:02:20.112Z,11.39
2023-05-19T07:03:20.056Z,11.44
2023-05-19T07:04:20.081Z,11.50
2023-05-19T07:05:19.991Z,11.54
2023-05-19T07:06:20.107Z,11.56
2023-05-19T07:07:19.964Z,11.58
2023-05-19T07:08:20.064Z,11.60
2023-05-19T07:09:19.936Z,11.63
2023-05-19T07:10:19.961Z,11.66
2023-05-19T07:11:19.915Z,11.70
2023-05-19T07:12:20.028Z,11.74
2023-05-19T07:13:19.886Z,11.77
2023-05-19T07:14:21.999Z,11.78
2023-05-19T07:15:19.848Z,11.77
2023-05-19T07:16:19.985Z,11.78
2023-05-19T07:17:19.834Z,11.81
2023-05-19T07:18:19.873Z,11.82
2023-05-19T07:19:19.915Z,11.82
2023-05-19T07:20:19.829Z,11.81
2023-05-19T07:21:19.778Z,11.82
2023-05-19T07:22:19.858Z,11.83
2023-05-19T07:23:19.756Z,11.82
2023-05-19T07:24:19.820Z,11.80
2023-05-19T07:25:19.744Z,11.78
2023-05-19T07:26:19.814Z,11.77
2023-05-19T07:27:19.686Z,11.78
2023-05-19T07:28:19.796Z,11.83
2023-05-19T07:29:19.684Z,11.88
2023-05-19T07:30:19.773Z,11.96
2023-05-19T07:31:19.641Z,12.02
2023-05-19T07:32:20.793Z,12.03
2023-05-19T07:33:19.613Z,12.03
2023-05-19T07:34:19.654Z,12.04
2023-05-19T07:35:19.637Z,12.06
2023-05-19T07:36:19.711Z,12.09
2023-05-19T07:37:19.562Z,12.14
2023-05-19T07:38:20.580Z,12.20
2023-05-19T07:39:19.570Z,12.26
2023-05-19T07:40:19.585Z,12.34
2023-05-19T07:41:19.696Z,12.48
2023-05-19T07:42:19.542Z,12.73
2023-05-19T07:43:19.589Z,12.91
2023-05-19T07:44:19.498Z,13.06
2023-05-19T07:45:19.455Z,13.22
2023-05-19T07:46:19.579Z,13.43
2023-05-19T07:47:19.446Z,13.64
2023-05-19T07:48:19.499Z,13.74
2023-05-19T07:49:19.390Z,13.77
2023-05-19T07:50:19.443Z,13.72
2023-05-19T07:51:19.420Z,13.67
2023-05-19T07:52:19.441Z,13.63
2023-05-19T07:53:19.342Z,13.62
2023-05-19T07:54:19.414Z,13.69
2023-05-19T07:55:19.303Z,13.90
2023-05-19T07:56:19.383Z,14.08
2023-05-19T07:57:19.276Z,14.27
2023-05-19T07:58:19.289Z,14.46
2023-05-19T07:59:19.245Z,14.60
2023-05-19T08:00:19.360Z,14.56
2023-05-19T08:01:19.222Z,14.45
2023-05-19T08:02:19.355Z,14.34
2023-05-19T08:03:19.382Z,14.26
2023-05-19T08:04:20.419Z,14.24
2023-05-19T08:05:19.178Z,14.36
2023-05-19T08:06:19.304Z,14.54
2023-05-19T08:07:19.164Z,14.63
2023-05-19T08:08:20.196Z,14.69
2023-05-19T08:09:19.139Z,14.67
2023-05-19T08:10:19.181Z,14.62
2023-05-19T08:11:19.084Z,14.56
2023-05-19T08:12:19.122Z,14.52
2023-05-19T08:13:19.072Z,14.42
2023-05-19T08:14:19.106Z,14.35
2023-05-19T08:15:19.047Z,14.29
2023-05-19T08:16:19.201Z,14.26
2023-05-19T08:17:19.029Z,14.23
2023-05-19T08:18:19.103Z,14.21
2023-05-19T08:19:19.057Z,14.18
2023-05-19T08:20:19.058Z,14.16
2023-05-19T08:21:19.273Z,14.15
2023-05-19T08:22:19.078Z,14.15
2023-05-19T08:23:18.945Z,14.16
2023-05-19T08:24:19.034Z,14.20
2023-05-19T08:25:18.911Z,14.23
2023-05-19T08:26:18.990Z,14.21
2023-05-19T08:27:18.927Z,14.11
2023-05-19T08:28:18.892Z,13.95
2023-05-19T08:29:18.864Z,13.77
2023-05-19T08:30:20.009Z,13.65
2023-05-19T08:31:18.851Z,13.59
2023-05-19T08:32:18.941Z,13.57
2023-05-19T08:33:18.819Z,13.56
2023-05-19T08:34:20.065Z,13.54
2023-05-19T08:35:18.901Z,13.50
2023-05-19T08:36:19.868Z,13.46
2023-05-19T08:37:18.736Z,13.43
2023-05-19T08:38:18.743Z,13.40
2023-05-19T08:39:18.725Z,13.38
2023-05-19T08:40:18.777Z,13.40
2023-05-19T08:41:18.710Z,13.43
2023-05-19T08:42:18.741Z,13.46
2023-05-19T08:43:18.669Z,13.51
2023-05-19T08:44:19.203Z,13.56
2023-05-19T08:45:18.649Z,13.60
2023-05-19T08:46:20.000Z,13.67
2023-05-19T08:47:18.829Z,13.76
2023-05-19T08:48:18.683Z,13.85
2023-05-19T08:49:18.610Z,13.95
2023-05-19T08:50:18.637Z,14.05
2023-05-19T08:51:18.762Z,14.11
2023-05-19T08:52:18.678Z,14.19
2023-05-19T08:53:32.382Z,14.27
2023-05-19T08:54:19.555Z,14.32
2023-05-19T08:55:18.573Z,14.36
2023-05-19T08:56:18.657Z,14.34
2023-05-19T08:57:18.758Z,14.37
2023-05-19T08:58:19.115Z,14.39
2023-05-19T08:59:18.617Z,14.40
2023-05-19T09:00:19.798Z,14.44
2023-05-19T09:01:18.710Z,14.46
2023-05-19T09:02:18.414Z,14.46
2023-05-19T09:03:23.672Z,14.47
2023-05-19T09:04:20.032Z,14.44
2023-05-19T09:05:24.685Z,14.43
2023-05-19T09:06:20.030Z,14.41
2023-05-19T09:07:19.560Z,14.39
2023-05-19T09:08:18.351Z,14.38
2023-05-19T09:09:18.366Z,14.39
2023-05-19T09:10:18.294Z,14.41
2023-05-19T09:11:18.386Z,14.47
2023-05-19T09:12:18.338Z,14.55
2023-05-19T09:13:18.348Z,14.64
2023-05-19T09:14:18.268Z,14.74
2023-05-19T09:15:18.390Z,14.86
2023-05-19T09:16:18.256Z,14.99
2023-05-19T09:17:18.225Z,15.04
2023-05-19T09:18:18.210Z,15.07
2023-05-19T09:19:18.307Z,15.11
2023-05-19T09:20:18.193Z,15.16
2023-05-19T09:21:18.290Z,15.20
2023-05-19T09:22:18.198Z,15.22
2023-05-19T09:23:18.183Z,15.22
2023-05-19T09:24:18.183Z,15.18
2023-05-19T09:25:19.204Z,15.14
2023-05-19T09:26:18.088Z,15.09
2023-05-19T09:27:18.312Z,15.01
2023-05-19T09:28:18.338Z,14.97
2023-05-19T09:29:18.131Z,14.95
2023-05-19T09:30:18.049Z,14.98
2023-05-19T09:31:18.127Z,15.03
2023-05-19T09:32:18.045Z,15.10
2023-05-19T09:33:18.065Z,15.19
2023-05-19T09:34:17.977Z,15.29
2023-05-19T09:35:39.108Z,15.36
2023-05-19T09:36:17.956Z,15.40
2023-05-19T09:37:17.970Z,15.45
2023-05-19T09:38:17.928Z,15.50
2023-05-19T09:39:17.976Z,15.55
2023-05-19T09:40:17.952Z,15.60
2023-05-19T09:41:17.965Z,15.65
2023-05-19T09:42:17.867Z,15.67
2023-05-19T09:43:17.900Z,15.69
2023-05-19T09:44:17.849Z,15.69
2023-05-19T09:45:17.916Z,15.72
2023-05-19T09:46:17.825Z,15.74
2023-05-19T09:47:17.905Z,15.77
2023-05-19T09:48:17.792Z,15.81
2023-05-19T09:49:17.855Z,15.79
2023-05-19T09:50:17.824Z,15.80
2023-05-19T09:51:17.776Z,15.82
2023-05-19T09:52:17.745Z,15.83
2023-05-19T09:53:18.844Z,15.82
2023-05-19T09:54:17.705Z,15.79
2023-05-19T09:55:17.791Z,15.78
2023-05-19T09:56:17.692Z,15.78
2023-05-19T09:57:17.692Z,15.81
2023-05-19T09:58:17.666Z,15.86
2023-05-19T09:59:17.767Z,15.92
2023-05-19T10:00:17.747Z,15.95
2023-05-19T10:01:17.756Z,15.99
2023-05-19T10:02:17.614Z,16.03
2023-05-19T10:03:17.638Z,16.07
2023-05-19T10:04:17.585Z,16.09
2023-05-19T10:05:17.879Z,16.11
2023-05-19T10:06:17.549Z,16.09
2023-05-19T10:07:17.593Z,16.11
2023-05-19T10:08:17.521Z,16.15
2023-05-19T10:09:17.580Z,16.22
2023-05-19T10:10:17.584Z,16.32
2023-05-19T10:11:18.590Z,16.40
2023-05-19T10:12:17.478Z,16.46
2023-05-19T10:13:17.516Z,16.51
2023-05-19T10:14:17.440Z,16.56
2023-05-19T10:15:17.523Z,16.58
2023-05-19T10:16:17.419Z,16.62
2023-05-19T10:17:17.986Z,16.64
2023-05-19T10:18:19.918Z,16.64
2023-05-19T10:19:17.406Z,16.65
2023-05-19T10:20:17.450Z,16.66
2023-05-19T10:21:17.345Z,16.68
2023-05-19T10:22:17.390Z,16.72
2023-05-19T10:23:17.350Z,16.78
2023-05-19T10:24:18.413Z,16.85
2023-05-19T10:25:17.307Z,16.89
2023-05-19T10:26:17.312Z,16.91
2023-05-19T10:27:17.281Z,16.95
2023-05-19T10:28:17.334Z,16.93
2023-05-19T10:29:17.287Z,16.92
2023-05-19T10:30:17.469Z,16.91
2023-05-19T10:31:17.221Z,16.93
2023-05-19T10:32:17.252Z,16.94
2023-05-19T10:33:17.289Z,16.94
2023-05-19T10:34:17.261Z,16.93
2023-05-19T10:35:17.203Z,16.90
2023-05-19T10:36:18.208Z,16.88
2023-05-19T10:37:17.118Z,16.87
2023-05-19T10:38:17.282Z,16.86
2023-05-19T10:39:17.172Z,16.84
2023-05-19T10:40:17.524Z,16.84
2023-05-19T10:41:17.119Z,16.83
2023-05-19T10:42:17.113Z,16.82
2023-05-19T10:43:17.060Z,16.83
2023-05-19T10:44:17.127Z,16.86
2023-05-19T10:45:17.019Z,16.90
2023-05-19T10:46:17.051Z,16.95
2023-05-19T10:47:17.123Z,17.04
2023-05-19T10:48:17.184Z,17.11
2023-05-19T10:49:16.964Z,17.19
2023-05-19T10:50:17.053Z,17.25
2023-05-19T10:51:16.940Z,17.31
2023-05-19T10:52:16.987Z,17.34
2023-05-19T10:53:16.950Z,17.37
2023-05-19T10:54:16.985Z,17.40
2023-05-19T10:55:16.890Z,17.44
2023-05-19T10:56:17.017Z,17.53
2023-05-19T10:57:16.873Z,17.63
2023-05-19T10:58:16.933Z,17.71
2023-05-19T10:59:16.877Z,17.81
2023-05-19T11:00:16.933Z,17.91
2023-05-19T11:01:16.840Z,17.98
2023-05-19T11:02:16.982Z,18.03
2023-05-19T11:03:16.811Z,18.02
2023-05-19T11:04:16.906Z,17.97
2023-05-19T11:05:16.847Z,17.91
2023-05-19T11:06:16.774Z,17.82
2023-05-19T11:07:16.793Z,17.75
2023-05-19T11:08:16.787Z,17.72
2023-05-19T11:09:16.696Z,17.71
2023-05-19T11:10:16.822Z,17.70
2023-05-19T11:11:16.701Z,17.69
2023-05-19T11:12:16.715Z,17.64
2023-05-19T11:13:16.728Z,17.60
2023-05-19T11:14:16.740Z,17.57
2023-05-19T11:15:16.847Z,17.57
2023-05-19T11:16:16.746Z,17.59
2023-05-19T11:17:16.621Z,17.62
2023-05-19T11:18:16.761Z,17.66
2023-05-19T11:19:16.627Z,17.70
2023-05-19T11:20:16.566Z,17.76
2023-05-19T11:21:16.580Z,17.81
2023-05-19T11:22:16.607Z,17.84
2023-05-19T11:23:16.549Z,17.88
2023-05-19T11:24:16.602Z,17.91
2023-05-19T11:25:16.494Z,17.93
2023-05-19T11:26:16.519Z,17.94
2023-05-19T11:27:16.451Z,17.93
2023-05-19T11:28:16.531Z,17.94
2023-05-19T11:29:16.442Z,17.93
2023-05-19T11:30:16.427Z,17.93
2023-05-19T11:31:16.393Z,17.94
2023-05-19T11:32:16.590Z,17.96
2023-05-19T11:33:16.382Z,18.00
2023-05-19T11:34:16.470Z,18.03
2023-05-19T11:35:16.361Z,18.06
2023-05-19T11:36:16.392Z,18.06
2023-05-19T11:37:16.323Z,18.07
2023-05-19T11:38:16.396Z,18.08
2023-05-19T11:39:16.290Z,18.12
2023-05-19T11:40:16.298Z,18.17
2023-05-19T11:41:16.895Z,18.20
2023-05-19T11:42:16.321Z,18.22
2023-05-19T11:43:16.242Z,18.23
2023-05-19T11:44:16.327Z,18.23
2023-05-19T11:45:16.222Z,18.24
2023-05-19T11:46:17.272Z,18.25
2023-05-19T11:47:16.208Z,18.27
2023-05-19T11:48:16.303Z,18.30
2023-05-19T11:49:16.164Z,18.32
2023-05-19T11:50:16.196Z,18.32
2023-05-19T11:51:16.143Z,18.35
2023-05-19T11:52:16.288Z,18.42
2023-05-19T11:53:16.124Z,18.50
2023-05-19T11:54:18.209Z,18.57
2023-05-19T11:55:16.112Z,18.65
2023-05-19T11:56:16.121Z,18.74
2023-05-19T11:57:16.185Z,18.85
2023-05-19T11:58:16.165Z,18.94
2023-05-19T11:59:16.037Z,19.05
2023-05-19T12:00:16.035Z,19.18
2023-05-19T12:01:15.993Z,19.31
2023-05-19T12:02:16.082Z,19.41
2023-05-19T12:03:16.204Z,19.49
2023-05-19T12:04:16.060Z,19.51
2023-05-19T12:05:16.070Z,19.53
2023-05-19T12:06:16.020Z,19.52
2023-05-19T12:07:15.903Z,19.49
2023-05-19T12:08:16.000Z,19.44
2023-05-19T12:09:15.898Z,19.40
2023-05-19T12:10:15.952Z,19.38
2023-05-19T12:11:17.474Z,19.34
2023-05-19T12:12:15.921Z,19.32
2023-05-19T12:13:15.834Z,19.35
2023-05-19T12:14:15.943Z,19.40
2023-05-19T12:15:15.853Z,19.47
2023-05-19T12:16:15.875Z,19.57
2023-05-19T12:17:15.804Z,19.66
2023-05-19T12:18:16.909Z,19.80
2023-05-19T12:19:15.773Z,19.93
2023-05-19T12:20:15.769Z,20.04
2023-05-19T12:21:15.728Z,20.13
2023-05-19T12:22:15.784Z,20.22
2023-05-19T12:23:15.724Z,20.34
2023-05-19T12:24:15.801Z,20.43
2023-05-19T12:25:15.686Z,20.49
2023-05-19T12:26:15.716Z,20.57
2023-05-19T12:27:15.645Z,20.63
2023-05-19T12:28:15.737Z,20.64
2023-05-19T12:29:15.644Z,20.63
2023-05-19T12:30:15.676Z,20.65
2023-05-19T12:31:15.669Z,20.66
2023-05-19T12:32:16.686Z,20.68
2023-05-19T12:33:15.629Z,20.71
2023-05-19T12:34:15.676Z,20.71
2023-05-19T12:35:15.605Z,20.68
2023-05-19T12:36:15.578Z,20.69
2023-05-19T12:37:15.508Z,20.71
2023-05-19T12:38:15.589Z,20.72
2023-05-19T12:39:15.505Z,20.74
2023-05-19T12:40:15.528Z,20.75
2023-05-19T12:41:15.519Z,20.77
2023-05-19T12:42:15.524Z,20.77
2023-05-19T12:43:15.426Z,20.74
2023-05-19T12:44:15.472Z,20.73
2023-05-19T12:45:15.414Z,20.72
2023-05-19T12:46:15.484Z,20.72
2023-05-19T12:47:15.395Z,20.73
2023-05-19T12:48:15.517Z,20.74
2023-05-19T12:49:15.350Z,20.71
2023-05-19T12:50:15.381Z,20.65
2023-05-19T12:51:15.335Z,20.61
2023-05-19T12:52:15.387Z,20.56
2023-05-19T12:53:15.320Z,20.49
2023-05-19T12:54:15.336Z,20.45
2023-05-19T12:55:15.305Z,20.42
2023-05-19T12:56:15.316Z,20.38
2023-05-19T12:57:15.244Z,20.33
2023-05-19T12:58:15.330Z,20.28
2023-05-19T12:59:18.855Z,20.22
2023-05-19T13:00:16.248Z,20.17
2023-05-19T13:01:15.490Z,20.11